Time;durP1;ratioP1;P1;durP2;ratioP2;P2;SDS_P1;SDS_P2;PMS_P1;PMS_P2;Temp;Humidity;BMP_temperature;BMP_pressure;BME280_temperature;BME280_humidity;BME280_pressure;Samples;Min_cycle;Max_cycle;Signal;HPM_P1;HPM_P2
2021/04/29 00:00:23;;;;;;;25.00;22.10;;;;;20.60;98911.00;;;;2074217;28;20226;-72
2021/04/29 00:01:24;;;;;;;24.60;22.07;;;;;20.60;98913.00;;;;2072461;28;20217;-71
2021/04/29 00:02:24;;;;;;;25.30;22.70;;;;;20.60;98914.00;;;;2080912;28;20222;-72
2021/04/29 00:03:24;;;;;;;26.17;22.40;;;;;20.60;98911.00;;;;2081613;28;20210;-72
2021/04/29 00:04:25;;;;;;;24.00;21.60;;;;;20.60;98919.00;;;;2081644;28;20681;-71
2021/04/29 00:05:27;;;;;;;26.23;22.33;;;;;20.60;98909.00;;;;2081582;28;20766;-71
2021/04/29 00:06:27;;;;;;;25.58;20.80;;;;;20.60;98918.00;;;;2080737;28;20214;-71
2021/04/29 00:07:27;;;;;;;24.20;21.70;;;;;20.60;98908.00;;;;2072801;28;20210;-71
2021/04/29 00:08:28;;;;;;;21.80;19.47;;;;;20.60;98911.00;;;;2080839;28;20230;-71
2021/04/29 00:09:29;;;;;;;24.37;21.83;;;;;20.60;98917.00;;;;2081422;28;20288;-71
2021/04/29 00:10:30;;;;;;;23.00;20.63;;;;;20.60;98909.00;;;;2073105;28;20210;-71
2021/04/29 00:11:31;;;;;;;22.13;19.50;;;;;20.60;98908.00;;;;2072740;28;20215;-71
2021/04/29 00:12:32;;;;;;;23.02;20.63;;;;;20.60;98920.00;;;;2057547;28;20786;-70
2021/04/29 00:13:32;;;;;;;21.57;19.37;;;;;20.60;98918.00;;;;2072658;28;20215;-71
2021/04/29 00:14:33;;;;;;;21.33;19.13;;;;;20.60;98921.00;;;;2081463;28;20747;-71
2021/04/29 00:15:33;;;;;;;21.10;18.90;;;;;20.60;98918.00;;;;2081578;28;20245;-71
2021/04/29 00:16:33;;;;;;;21.20;18.93;;;;;20.60;98923.00;;;;2081395;28;20295;-71
2021/04/29 00:17:34;;;;;;;20.27;18.17;;;;;20.60;98905.00;;;;2080719;28;20221;-71
2021/04/29 00:18:34;;;;;;;19.40;17.50;;;;;20.60;98920.00;;;;2080229;28;20221;-70
2021/04/29 00:19:34;;;;;;;20.37;18.20;;;;;20.60;98919.00;;;;2081381;28;20214;-70
2021/04/29 00:20:35;;;;;;;20.67;18.37;;;;;20.60;98909.00;;;;2081143;28;20214;-71
2021/04/29 00:21:36;;;;;;;18.90;16.90;;;;;20.60;98915.00;;;;2081390;28;20229;-70
2021/04/29 00:22:36;;;;;;;20.30;18.20;;;;;20.60;98909.00;;;;2072392;28;20236;-71
2021/04/29 00:23:36;;;;;;;19.50;17.50;;;;;20.60;98909.00;;;;2053174;28;20516;-71
2021/04/29 00:24:37;;;;;;;19.70;17.70;;;;;20.60;98914.00;;;;2072296;28;20268;-71
2021/04/29 00:25:37;;;;;;;19.47;17.47;;;;;20.60;98917.00;;;;2081300;28;20217;-70
2021/04/29 00:26:38;;;;;;;19.20;17.17;;;;;20.60;98922.00;;;;2072494;28;20211;-72
2021/04/29 00:27:38;;;;;;;20.03;18.03;;;;;20.60;98911.00;;;;2072398;28;20283;-71
2021/04/29 00:28:38;;;;;;;18.87;16.93;;;;;20.60;98909.00;;;;2080514;28;20596;-71
2021/04/29 00:29:39;;;;;;;16.73;15.03;;;;;20.60;98911.00;;;;2072303;28;20310;-71
2021/04/29 00:30:39;;;;;;;18.47;16.67;;;;;20.60;98908.00;;;;2080413;28;20210;-71
2021/04/29 00:31:39;;;;;;;17.77;16.03;;;;;20.50;98915.00;;;;2081180;28;20225;-71
2021/04/29 00:32:40;;;;;;;17.50;15.70;;;;;20.50;98909.00;;;;2081106;28;20709;-71
2021/04/29 00:33:40;;;;;;;18.40;16.50;;;;;20.60;98913.00;;;;2081182;28;20230;-69
2021/04/29 00:34:40;;;;;;;16.93;15.23;;;;;20.60;98911.00;;;;2081263;28;20565;-70
2021/04/29 00:35:41;;;;;;;17.50;15.73;;;;;20.50;98916.00;;;;2079849;28;20597;-71
2021/04/29 00:36:41;;;;;;;16.90;15.10;;;;;20.60;98914.00;;;;2080676;28;20592;-71
2021/04/29 00:37:41;;;;;;;16.30;14.70;;;;;20.50;98915.00;;;;2081202;28;20291;-71
2021/04/29 00:38:42;;;;;;;16.43;14.83;;;;;20.50;98909.00;;;;2072428;28;20344;-72
2021/04/29 00:39:42;;;;;;;15.70;14.20;;;;;20.50;98912.00;;;;2072356;28;20264;-71
2021/04/29 00:40:43;;;;;;;16.83;15.13;;;;;20.50;98904.00;;;;2067239;28;20226;-71
2021/04/29 00:41:43;;;;;;;16.87;15.17;;;;;20.50;98915.00;;;;2072460;28;20613;-71
2021/04/29 00:42:43;;;;;;;16.03;14.33;;;;;20.50;98918.00;;;;2072499;28;20215;-73
2021/04/29 00:43:44;;;;;;;16.27;14.67;;;;;20.50;98909.00;;;;2064338;28;20302;-71
2021/04/29 00:44:44;;;;;;;15.13;13.63;;;;;20.50;98906.00;;;;2072424;28;20752;-72
2021/04/29 00:45:45;;;;;;;15.00;13.40;;;;;20.50;98908.00;;;;2072291;28;20257;-70
2021/04/29 00:46:46;;;;;;;16.05;14.45;;;;;20.50;98905.00;;;;2076450;28;20228;-71
2021/04/29 00:47:49;;;;;;;15.33;13.73;;;;;20.50;98918.00;;;;2080474;28;20214;-71
2021/04/29 00:48:50;;;;;;;15.35;13.75;;;;;20.50;98905.00;;;;2072254;28;20230;-71
2021/04/29 00:49:50;;;;;;;14.67;13.17;;;;;20.50;98914.00;;;;2056156;28;20741;-71
2021/04/29 00:50:50;;;;;;;16.10;14.10;;;;;20.50;98910.00;;;;2063996;28;20714;-71
2021/04/29 00:51:51;;;;;;;14.50;13.07;;;;;20.50;98905.00;;;;2072450;28;20214;-70
2021/04/29 00:52:51;;;;;;;14.47;13.07;;;;;20.50;98906.00;;;;2072041;28;20215;-70
2021/04/29 00:53:52;;;;;;;15.43;13.80;;;;;20.50;98903.00;;;;2071930;28;20214;-70
2021/04/29 00:54:53;;;;;;;14.13;12.77;;;;;20.50;98903.00;;;;2080540;28;20214;-69
2021/04/29 00:55:53;;;;;;;13.07;11.77;;;;;20.50;98904.00;;;;2080553;28;20225;-69
2021/04/29 00:56:53;;;;;;;14.47;12.63;;;;;20.50;98908.00;;;;2079200;28;20284;-71
2021/04/29 00:57:54;;;;;;;13.10;11.80;;;;;20.50;98909.00;;;;2080781;28;20260;-71
2021/04/29 00:58:54;;;;;;;17.03;13.10;;;;;20.50;98904.00;;;;2079717;28;20230;-71
2021/04/29 00:59:55;;;;;;;13.23;11.83;;;;;20.50;98912.00;;;;2071699;28;20215;-71
2021/04/29 01:00:55;;;;;;;12.57;11.30;;;;;20.50;98903.00;;;;2054803;28;20243;-71
2021/04/29 01:01:59;;;;;;;13.23;11.83;;;;;20.50;98907.00;;;;2064108;28;20219;-70
2021/04/29 01:03:22;;;;;;;13.40;12.13;;;;;20.50;98913.00;;;;2072649;28;20732;-71
2021/04/29 01:04:33;;;;;;;13.45;12.05;;;;;20.50;98909.00;;;;2074561;28;20332;-71
2021/04/29 01:05:37;;;;;;;12.93;11.63;;;;;20.50;98899.00;;;;2076448;28;20225;-71
2021/04/29 01:06:39;;;;;;;13.15;11.73;;;;;20.50;98902.00;;;;2080312;28;20688;-71
2021/04/29 01:07:44;;;;;;;12.52;11.23;;;;;20.50;98895.00;;;;2072286;28;20233;-70
2021/04/29 01:08:57;;;;;;;12.63;11.32;;;;;20.50;98902.00;;;;2056221;28;20220;-71
2021/04/29 01:10:22;;;;;;;12.63;11.32;;;;;20.50;98903.00;;;;2067769;28;20215;-70
2021/04/29 01:11:24;;;;;;;13.55;11.48;;;;;20.50;98899.00;;;;2072812;28;20211;-70
2021/04/29 01:12:42;;;;;;;12.00;10.90;;;;;20.50;98898.00;;;;2080350;28;20705;-71
2021/04/29 01:13:44;;;;;;;11.07;10.02;;;;;20.50;98900.00;;;;2076330;28;20304;-71
2021/04/29 01:14:46;;;;;;;11.50;10.40;;;;;20.50;98901.00;;;;2072057;28;20714;-71
2021/04/29 01:15:46;;;;;;;11.32;10.23;;;;;20.50;98901.00;;;;2056291;28;20226;-71
2021/04/29 01:16:46;;;;;;;11.40;10.20;;;;;20.40;98900.00;;;;2056125;28;20250;-70
2021/04/29 01:17:47;;;;;;;11.70;10.60;;;;;20.50;98898.00;;;;2064060;28;20234;-71
2021/04/29 01:18:47;;;;;;;11.73;10.60;;;;;20.40;98901.00;;;;2080292;28;20211;-71
2021/04/29 01:20:03;;;;;;;11.33;10.23;;;;;20.40;98890.00;;;;2080329;28;20236;-71
2021/04/29 01:21:05;;;;;;;10.80;9.77;;;;;20.40;98899.00;;;;2074114;28;20229;-71
2021/04/29 01:22:06;;;;;;;11.25;10.15;;;;;20.40;98889.00;;;;2080362;28;20257;-71
2021/04/29 01:23:37;;;;;;;11.10;10.00;;;;;20.40;98894.00;;;;2072204;28;20641;-71
2021/04/29 01:24:50;;;;;;;9.95;8.95;;;;;20.40;98895.00;;;;2063568;28;20222;-72
2021/04/29 01:25:50;;;;;;;10.20;9.15;;;;;20.40;98890.00;;;;2057511;28;20703;-71
2021/04/29 01:26:54;;;;;;;10.27;9.27;;;;;20.40;98897.00;;;;2056048;28;20263;-71
2021/04/29 01:27:56;;;;;;;10.13;9.20;;;;;20.40;98894.00;;;;2061889;28;20294;-71
2021/04/29 01:28:56;;;;;;;10.93;9.85;;;;;20.40;98897.00;;;;2064171;28;20219;-71
2021/04/29 01:29:57;;;;;;;10.80;9.70;;;;;20.40;98901.00;;;;2080133;28;20222;-71
2021/04/29 01:30:57;;;;;;;9.50;8.60;;;;;20.40;98897.00;;;;2080004;28;20224;-71
2021/04/29 01:31:58;;;;;;;9.97;8.97;;;;;20.40;98900.00;;;;2080168;28;20214;-72
2021/04/29 01:32:58;;;;;;;9.97;8.97;;;;;20.40;98899.00;;;;2080077;28;20213;-70
2021/04/29 01:33:59;;;;;;;9.33;8.43;;;;;20.40;98901.00;;;;2080384;28;20210;-71
2021/04/29 01:34:59;;;;;;;9.43;8.43;;;;;20.40;98902.00;;;;2072201;28;20590;-71
2021/04/29 01:36:00;;;;;;;9.90;8.90;;;;;20.40;98899.00;;;;2064019;28;20215;-71
2021/04/29 01:37:00;;;;;;;9.30;8.40;;;;;20.40;98899.00;;;;2055991;28;20298;-71
2021/04/29 01:38:00;;;;;;;9.13;8.23;;;;;20.40;98903.00;;;;2063834;28;20215;-72
2021/04/29 01:39:03;;;;;;;9.20;8.40;;;;;20.40;98905.00;;;;2067412;28;20203;-72
2021/04/29 01:40:05;;;;;;;10.45;9.45;;;;;20.40;98890.00;;;;2076806;28;20819;-71
2021/04/29 01:41:05;;;;;;;9.50;8.60;;;;;20.40;98906.00;;;;2071926;28;20231;-71
2021/04/29 01:42:06;;;;;;;9.60;8.70;;;;;20.40;98907.00;;;;2055954;28;20224;-71
2021/04/29 01:43:06;;;;;;;8.73;7.93;;;;;20.40;98906.00;;;;2071950;28;20644;-71
2021/04/29 01:44:08;;;;;;;9.47;8.57;;;;;20.40;98910.00;;;;2080159;28;21154;-71
2021/04/29 01:45:08;;;;;;;8.95;8.15;;;;;20.40;98910.00;;;;2080780;28;20283;-71
2021/04/29 01:46:10;;;;;;;9.63;8.33;;;;;20.40;98909.00;;;;2071970;28;20277;-72
2021/04/29 01:47:10;;;;;;;9.32;8.43;;;;;20.40;98911.00;;;;2072181;28;20238;-71
2021/04/29 01:48:10;;;;;;;8.90;8.00;;;;;20.40;98909.00;;;;2071985;28;20242;-71
2021/04/29 01:49:11;;;;;;;8.67;7.80;;;;;20.40;98906.00;;;;2055062;28;20243;-71
2021/04/29 01:50:12;;;;;;;8.07;7.27;;;;;20.40;98914.00;;;;2071987;28;20616;-71
2021/04/29 01:51:12;;;;;;;8.60;7.80;;;;;20.40;98908.00;;;;2071834;28;20206;-71
2021/04/29 01:52:13;;;;;;;7.87;7.10;;;;;20.40;98898.00;;;;2071970;28;20207;-72
2021/04/29 01:53:13;;;;;;;8.77;7.87;;;;;20.40;98914.00;;;;2071892;28;20218;-71
2021/04/29 01:54:16;;;;;;;8.40;7.50;;;;;20.40;98915.00;;;;2071983;28;20218;-71
2021/04/29 01:55:16;;;;;;;8.18;7.47;;;;;20.40;98915.00;;;;2055978;28;20301;-70
2021/04/29 01:56:17;;;;;;;7.80;7.10;;;;;20.40;98910.00;;;;2048060;28;20308;-70
2021/04/29 01:57:18;;;;;;;8.20;7.40;;;;;20.40;98919.00;;;;2056593;28;20219;-69
2021/04/29 01:58:19;;;;;;;8.00;7.30;;;;;20.40;98921.00;;;;2055445;28;20227;-70
2021/04/29 01:59:20;;;;;;;8.80;7.43;;;;;20.40;98916.00;;;;2055760;28;20223;-70
2021/04/29 02:00:20;;;;;;;7.93;7.17;;;;;20.40;98922.00;;;;2063606;28;20242;-70
2021/04/29 02:01:21;;;;;;;7.70;7.00;;;;;20.40;98917.00;;;;2075685;28;20221;-70
2021/04/29 02:02:24;;;;;;;7.77;7.07;;;;;20.40;98922.00;;;;2079692;28;20240;-68
2021/04/29 02:03:24;;;;;;;7.70;7.00;;;;;20.30;98924.00;;;;2064052;28;20211;-70
2021/04/29 02:04:24;;;;;;;7.70;7.00;;;;;20.40;98918.00;;;;2071685;28;20238;-70
2021/04/29 02:05:25;;;;;;;7.37;6.67;;;;;20.40;98920.00;;;;2080595;28;20238;-70
2021/04/29 02:06:25;;;;;;;8.80;7.40;;;;;20.40;98931.00;;;;2080703;28;20217;-70
2021/04/29 02:07:26;;;;;;;7.33;6.63;;;;;20.30;98929.00;;;;2071661;28;20217;-69
2021/04/29 02:08:26;;;;;;;7.90;6.73;;;;;20.30;98924.00;;;;2063742;28;20215;-70
2021/04/29 02:09:26;;;;;;;7.13;6.43;;;;;20.30;98926.00;;;;2071585;28;20213;-70
2021/04/29 02:10:27;;;;;;;7.40;6.70;;;;;20.40;98918.00;;;;2071734;28;20218;-70
2021/04/29 02:11:29;;;;;;;7.63;6.87;;;;;20.30;98921.00;;;;2072481;28;20242;-69
2021/04/29 02:12:31;;;;;;;8.20;6.85;;;;;20.40;98925.00;;;;2063611;28;20713;-70
2021/04/29 02:13:31;;;;;;;6.60;6.10;;;;;20.40;98920.00;;;;2055439;28;20710;-70
2021/04/29 02:14:46;;;;;;;7.23;6.53;;;;;20.30;98930.00;;;;2047601;28;20209;-69
2021/04/29 02:15:51;;;;;;;7.38;6.43;;;;;20.30;98915.00;;;;2051331;28;20224;-70
2021/04/29 02:16:51;;;;;;;6.90;6.25;;;;;20.30;98922.00;;;;2060527;28;20303;-70
2021/04/29 02:18:08;;;;;;;7.10;6.47;;;;;20.30;98923.00;;;;2079983;28;20260;-70
2021/04/29 02:19:08;;;;;;;6.65;6.05;;;;;20.30;98917.00;;;;2071747;28;20589;-69
2021/04/29 02:20:10;;;;;;;6.67;6.07;;;;;20.30;98918.00;;;;2071949;28;20222;-69
2021/04/29 02:21:13;;;;;;;6.63;5.90;;;;;20.40;98930.00;;;;2071775;28;20226;-70
2021/04/29 02:22:13;;;;;;;6.90;5.95;;;;;20.30;98908.00;;;;2064053;28;20223;-69
2021/04/29 02:23:16;;;;;;;9.20;6.00;;;;;20.30;98925.00;;;;2063879;28;20223;-69
2021/04/29 02:24:16;;;;;;;9.85;6.50;;;;;20.30;98926.00;;;;2063810;28;20589;-69
2021/04/29 02:25:19;;;;;;;6.30;5.70;;;;;20.30;98920.00;;;;2055704;28;20230;-70
2021/04/29 02:26:19;;;;;;;7.82;6.65;;;;;20.30;98924.00;;;;2048108;28;20226;-69
2021/04/29 02:27:20;;;;;;;6.50;5.90;;;;;20.30;98923.00;;;;2063830;28;20749;-68
2021/04/29 02:28:20;;;;;;;6.23;5.70;;;;;20.30;98919.00;;;;2063666;28;20207;-68
2021/04/29 02:29:21;;;;;;;6.70;6.10;;;;;20.30;98918.00;;;;2063625;28;20219;-69
2021/04/29 02:30:21;;;;;;;6.33;5.73;;;;;20.30;98898.00;;;;2071694;28;20772;-69
2021/04/29 02:31:22;;;;;;;6.50;5.90;;;;;20.30;98928.00;;;;2063390;28;20618;-69
2021/04/29 02:32:23;;;;;;;6.15;5.65;;;;;20.30;98910.00;;;;2055503;28;20215;-70
2021/04/29 02:33:23;;;;;;;6.57;5.97;;;;;20.30;98921.00;;;;2063653;28;20242;-70
2021/04/29 02:34:23;;;;;;;6.53;5.80;;;;;20.30;98922.00;;;;2071794;28;20217;-70
2021/04/29 02:35:24;;;;;;;6.00;5.50;;;;;20.30;98925.00;;;;2080432;28;20723;-70
2021/04/29 02:36:24;;;;;;;6.53;5.30;;;;;20.30;98926.00;;;;2079772;28;20813;-69
2021/04/29 02:37:24;;;;;;;6.30;5.80;;;;;20.30;98920.00;;;;2079941;28;20738;-70
2021/04/29 02:38:25;;;;;;;6.00;5.50;;;;;20.30;98910.00;;;;2079841;28;20681;-70
2021/04/29 02:39:25;;;;;;;5.90;5.30;;;;;20.30;98924.00;;;;2064179;28;20690;-69
2021/04/29 02:40:26;;;;;;;6.00;5.43;;;;;20.30;98916.00;;;;2054511;28;20216;-70
2021/04/29 02:41:26;;;;;;;5.70;5.20;;;;;20.30;98917.00;;;;2071868;28;20265;-69
2021/04/29 02:42:27;;;;;;;5.50;5.00;;;;;20.30;98894.00;;;;2063528;28;20215;-70
2021/04/29 02:43:27;;;;;;;5.60;5.10;;;;;20.30;98909.00;;;;2063466;28;20238;-70
2021/04/29 02:44:29;;;;;;;6.30;5.70;;;;;20.30;98911.00;;;;2071671;28;20214;-70
2021/04/29 02:45:29;;;;;;;6.47;5.88;;;;;20.30;98919.00;;;;2071775;28;20214;-69
2021/04/29 02:46:29;;;;;;;5.70;5.20;;;;;20.30;98915.00;;;;2079861;28;20708;-70
2021/04/29 02:47:30;;;;;;;5.60;5.10;;;;;20.30;98913.00;;;;2075603;28;20687;-69
2021/04/29 02:48:30;;;;;;;6.03;5.43;;;;;20.30;98909.00;;;;2071549;28;20780;-69
2021/04/29 02:49:31;;;;;;;5.40;4.90;;;;;20.30;98916.00;;;;2071534;28;20253;-69
2021/04/29 02:50:31;;;;;;;6.00;5.40;;;;;20.30;98910.00;;;;2071372;28;20210;-70
2021/04/29 02:51:35;;;;;;;5.53;5.03;;;;;20.30;98909.00;;;;2071624;28;20461;-70
2021/04/29 02:52:36;;;;;;;7.78;5.43;;;;;20.30;98911.00;;;;2079812;28;20221;-70
2021/04/29 02:53:36;;;;;;;5.77;5.27;;;;;20.30;98903.00;;;;2080034;28;20248;-70
2021/04/29 02:54:36;;;;;;;6.07;5.50;;;;;20.30;98915.00;;;;2088059;28;20282;-67
2021/04/29 02:55:37;;;;;;;5.37;4.87;;;;;20.30;98915.00;;;;2080412;28;20669;-69
2021/04/29 02:56:40;;;;;;;5.60;5.10;;;;;20.30;98914.00;;;;2079785;28;20261;-70
2021/04/29 02:57:40;;;;;;;6.32;5.72;;;;;20.30;98909.00;;;;2071886;28;20211;-70
2021/04/29 02:58:42;;;;;;;5.27;4.77;;;;;20.30;98894.00;;;;2079854;28;20309;-70
2021/04/29 02:59:43;;;;;;;6.03;5.50;;;;;20.30;98912.00;;;;2079812;28;20228;-70
2021/04/29 03:00:44;;;;;;;5.90;5.30;;;;;20.30;98915.00;;;;2071203;28;20211;-69
2021/04/29 03:01:45;;;;;;;6.30;5.70;;;;;20.30;98918.00;;;;2071740;28;20215;-70
2021/04/29 03:02:45;;;;;;;5.83;5.23;;;;;20.20;98911.00;;;;2079740;28;20347;-70
2021/04/29 03:03:46;;;;;;;5.10;4.70;;;;;20.30;98916.00;;;;2079648;28;20224;-70
2021/04/29 03:04:48;;;;;;;5.43;4.90;;;;;20.20;98914.00;;;;2071600;28;20246;-70
2021/04/29 03:05:48;;;;;;;5.93;5.43;;;;;20.30;98910.00;;;;2079862;28;20293;-69
2021/04/29 03:06:49;;;;;;;6.07;5.40;;;;;20.30;98907.00;;;;2080571;28;20945;-70
2021/04/29 03:07:49;;;;;;;6.40;5.20;;;;;20.30;98909.00;;;;2079764;28;20288;-69
2021/04/29 03:08:50;;;;;;;6.03;5.53;;;;;20.30;98913.00;;;;2079667;28;20265;-69
2021/04/29 03:09:51;;;;;;;7.47;6.50;;;;;20.20;98917.00;;;;2077120;28;20226;-70
2021/04/29 03:10:51;;;;;;;6.20;5.65;;;;;20.30;98919.00;;;;2063491;28;20501;-70
2021/04/29 03:11:52;;;;;;;5.50;5.00;;;;;20.30;98916.00;;;;2062231;28;20327;-70
2021/04/29 03:12:52;;;;;;;5.43;4.93;;;;;20.20;98918.00;;;;2071448;28;20214;-70
2021/04/29 03:13:52;;;;;;;6.33;5.77;;;;;20.30;98912.00;;;;2079694;28;20210;-70
2021/04/29 03:14:53;;;;;;;6.10;5.60;;;;;20.20;98909.00;;;;2071631;28;20628;-70
2021/04/29 03:15:53;;;;;;;5.70;5.20;;;;;20.30;98915.00;;;;2079837;28;20637;-70
2021/04/29 03:16:53;;;;;;;6.37;5.87;;;;;20.30;98905.00;;;;2081431;28;20641;-70
2021/04/29 03:17:54;;;;;;;5.73;5.23;;;;;20.30;98911.00;;;;2081961;28;20214;-70
2021/04/29 03:18:54;;;;;;;6.20;5.60;;;;;20.20;98906.00;;;;2081858;28;20214;-70
2021/04/29 03:19:54;;;;;;;7.07;6.37;;;;;20.30;98912.00;;;;2081167;28;20222;-70
2021/04/29 03:20:55;;;;;;;7.90;6.00;;;;;20.20;98911.00;;;;2073027;28;20226;-70
2021/04/29 03:21:55;;;;;;;6.80;6.10;;;;;20.20;98911.00;;;;2081293;28;20623;-70
2021/04/29 03:22:55;;;;;;;6.83;6.23;;;;;20.20;98905.00;;;;2081126;28;20214;-69
2021/04/29 03:23:56;;;;;;;6.17;5.67;;;;;20.20;98910.00;;;;2081170;28;20302;-70
2021/04/29 03:24:56;;;;;;;6.13;5.63;;;;;20.20;98908.00;;;;2081951;28;20214;-70
2021/04/29 03:25:57;;;;;;;6.20;5.60;;;;;20.20;98906.00;;;;2081863;28;20210;-69
2021/04/29 03:26:57;;;;;;;6.10;5.60;;;;;20.20;98908.00;;;;2073052;28;20218;-70
2021/04/29 03:27:58;;;;;;;5.87;5.40;;;;;20.20;98915.00;;;;2073165;28;20453;-70
2021/04/29 03:28:58;;;;;;;5.83;5.33;;;;;20.20;98907.00;;;;2081782;28;20209;-69
2021/04/29 03:29:59;;;;;;;6.27;5.70;;;;;20.20;98904.00;;;;2081817;28;20222;-69
2021/04/29 03:30:59;;;;;;;6.33;5.77;;;;;20.20;98915.00;;;;2081016;28;20217;-69
2021/04/29 03:31:59;;;;;;;6.47;5.97;;;;;20.20;98914.00;;;;2080830;28;20297;-70
2021/04/29 03:33:00;;;;;;;6.67;5.90;;;;;20.20;98907.00;;;;2081869;28;20700;-70
2021/04/29 03:34:00;;;;;;;6.47;5.70;;;;;20.20;98911.00;;;;2072966;28;20743;-70
2021/04/29 03:35:03;;;;;;;6.77;6.10;;;;;20.20;98913.00;;;;2064889;28;20218;-71
2021/04/29 03:36:04;;;;;;;6.45;5.85;;;;;20.20;98913.00;;;;2081243;28;20280;-69
2021/04/29 03:37:04;;;;;;;7.00;6.40;;;;;20.20;98919.00;;;;2081157;28;20285;-70
2021/04/29 03:38:06;;;;;;;6.57;5.87;;;;;20.20;98916.00;;;;2081077;28;20206;-70
2021/04/29 03:39:06;;;;;;;6.57;6.00;;;;;20.20;98916.00;;;;2081777;28;20550;-70
2021/04/29 03:40:07;;;;;;;6.60;6.00;;;;;20.20;98923.00;;;;2077174;28;20214;-70
2021/04/29 03:41:07;;;;;;;6.53;5.93;;;;;20.20;98916.00;;;;2077992;28;20268;-70
2021/04/29 03:42:08;;;;;;;6.43;5.93;;;;;20.20;98924.00;;;;2072922;28;20216;-70
2021/04/29 03:43:08;;;;;;;6.37;5.83;;;;;20.20;98914.00;;;;2081103;28;20214;-70
2021/04/29 03:44:09;;;;;;;6.97;6.37;;;;;20.20;98922.00;;;;2079728;28;20218;-70
2021/04/29 03:45:10;;;;;;;7.17;6.47;;;;;20.20;98920.00;;;;2081154;28;20345;-69
2021/04/29 03:46:10;;;;;;;6.15;5.65;;;;;20.20;98918.00;;;;2081165;28;20214;-70
2021/04/29 03:47:10;;;;;;;7.10;6.40;;;;;20.20;98920.00;;;;2072895;28;20285;-70
2021/04/29 03:48:11;;;;;;;7.00;5.77;;;;;20.20;98920.00;;;;2080929;28;20210;-70
2021/04/29 03:49:11;;;;;;;7.00;6.30;;;;;20.20;98926.00;;;;2081087;28;20296;-70
2021/04/29 03:50:12;;;;;;;7.00;6.40;;;;;20.20;98912.00;;;;2072764;28;20597;-69
2021/04/29 03:51:12;;;;;;;6.37;5.80;;;;;20.20;98924.00;;;;2072824;28;20211;-70
2021/04/29 03:52:12;;;;;;;6.37;5.77;;;;;20.20;98921.00;;;;2081013;28;20285;-70
2021/04/29 03:53:13;;;;;;;5.93;5.33;;;;;20.20;98924.00;;;;2080866;28;20259;-70
2021/04/29 03:54:13;;;;;;;5.93;5.43;;;;;20.20;98925.00;;;;2072888;28;20243;-70
2021/04/29 03:55:14;;;;;;;5.07;4.67;;;;;20.20;98928.00;;;;2072845;28;20199;-70
2021/04/29 03:56:14;;;;;;;5.73;5.23;;;;;20.20;98935.00;;;;2072857;28;20199;-70
2021/04/29 03:57:14;;;;;;;6.90;6.30;;;;;20.20;98909.00;;;;2081093;28;20217;-70
2021/04/29 03:58:15;;;;;;;6.40;5.80;;;;;20.20;98926.00;;;;2072819;28;20597;-68
2021/04/29 03:59:15;;;;;;;6.80;6.20;;;;;20.20;98924.00;;;;2072779;28;20587;-69
2021/04/29 04:00:15;;;;;;;6.67;6.10;;;;;20.20;98931.00;;;;2071925;28;20727;-70
2021/04/29 04:01:16;;;;;;;6.37;5.87;;;;;20.20;98930.00;;;;2072062;28;20597;-70
2021/04/29 04:02:16;;;;;;;6.17;5.70;;;;;20.20;98931.00;;;;2081598;28;20213;-70
2021/04/29 04:03:16;;;;;;;6.33;5.83;;;;;20.20;98931.00;;;;2081098;28;20210;-70
2021/04/29 04:04:17;;;;;;;6.10;5.60;;;;;20.20;98926.00;;;;2080961;28;20206;-70
2021/04/29 04:05:18;;;;;;;6.50;6.00;;;;;20.10;98928.00;;;;2080871;28;20233;-69
2021/04/29 04:06:18;;;;;;;6.27;5.70;;;;;20.20;98932.00;;;;2080711;28;20257;-70
2021/04/29 04:07:18;;;;;;;6.30;5.70;;;;;20.20;98936.00;;;;2081549;28;20213;-70
2021/04/29 04:08:19;;;;;;;5.60;5.10;;;;;20.20;98938.00;;;;2080948;28;20704;-69
2021/04/29 04:09:19;;;;;;;6.40;5.80;;;;;20.20;98931.00;;;;2080790;28;20228;-70
2021/04/29 04:10:20;;;;;;;6.33;5.80;;;;;20.20;98939.00;;;;2066297;28;20617;-70
2021/04/29 04:11:20;;;;;;;7.60;6.33;;;;;20.20;98930.00;;;;2071454;28;20219;-70
2021/04/29 04:12:20;;;;;;;6.33;5.80;;;;;20.20;98927.00;;;;2081495;28;20203;-70
2021/04/29 04:13:21;;;;;;;7.07;5.87;;;;;20.20;98930.00;;;;2081498;28;20281;-70
2021/04/29 04:14:21;;;;;;;6.60;6.00;;;;;20.20;98934.00;;;;2081607;28;20272;-70
2021/04/29 04:15:22;;;;;;;6.37;5.83;;;;;20.20;98932.00;;;;2081615;28;20202;-70
2021/04/29 04:16:23;;;;;;;6.30;5.70;;;;;20.20;98927.00;;;;2080789;28;20214;-70
2021/04/29 04:17:23;;;;;;;6.30;5.80;;;;;20.20;98929.00;;;;2080438;28;20217;-70
2021/04/29 04:18:23;;;;;;;5.80;5.40;;;;;20.20;98928.00;;;;2080082;28;20234;-69
2021/04/29 04:19:24;;;;;;;6.37;5.87;;;;;20.20;98931.00;;;;2080868;28;20225;-70
2021/04/29 04:20:24;;;;;;;7.03;6.23;;;;;20.20;98930.00;;;;2080823;28;20212;-70
2021/04/29 04:21:25;;;;;;;7.07;6.37;;;;;20.20;98927.00;;;;2064077;28;20311;-70
2021/04/29 04:22:25;;;;;;;6.70;6.07;;;;;20.20;98936.00;;;;2055221;28;20220;-70
2021/04/29 04:23:26;;;;;;;6.57;5.93;;;;;20.20;98936.00;;;;2072728;28;20449;-69
2021/04/29 04:24:26;;;;;;;5.83;5.33;;;;;20.20;98944.00;;;;2081029;28;20210;-69
2021/04/29 04:25:26;;;;;;;5.90;5.40;;;;;20.20;98947.00;;;;2080878;28;20257;-69
2021/04/29 04:26:27;;;;;;;6.07;5.47;;;;;20.10;98942.00;;;;2080653;28;20218;-69
2021/04/29 04:27:27;;;;;;;6.50;6.00;;;;;20.10;98943.00;;;;2080791;28;20224;-69
2021/04/29 04:28:27;;;;;;;6.90;5.70;;;;;20.20;98948.00;;;;2080752;28;20222;-69
2021/04/29 04:29:28;;;;;;;6.20;5.70;;;;;20.20;98946.00;;;;2080727;28;20218;-67
2021/04/29 04:30:28;;;;;;;6.40;5.80;;;;;20.20;98947.00;;;;2080839;28;20276;-69
2021/04/29 04:31:29;;;;;;;6.10;5.50;;;;;20.20;98953.00;;;;2079893;28;20694;-69
2021/04/29 04:32:29;;;;;;;5.97;5.47;;;;;20.20;98946.00;;;;2079998;28;20217;-69
2021/04/29 04:33:30;;;;;;;6.17;5.63;;;;;20.20;98946.00;;;;2080261;28;20210;-69
2021/04/29 04:34:30;;;;;;;5.93;5.43;;;;;20.20;98942.00;;;;2080009;28;20206;-69
2021/04/29 04:35:30;;;;;;;5.90;5.40;;;;;20.20;98946.00;;;;2080716;28;20214;-69
2021/04/29 04:36:30;;;;;;;5.70;5.20;;;;;20.20;98945.00;;;;2080866;28;20213;-70
2021/04/29 04:37:31;;;;;;;5.90;5.40;;;;;20.10;98952.00;;;;2080386;28;20271;-70
2021/04/29 04:38:31;;;;;;;6.07;5.47;;;;;20.10;98955.00;;;;2080631;28;20272;-70
2021/04/29 04:39:33;;;;;;;6.50;5.90;;;;;20.10;98961.00;;;;2080683;28;20210;-71
2021/04/29 04:40:33;;;;;;;6.00;5.50;;;;;20.10;98955.00;;;;2078464;28;20214;-69
2021/04/29 04:41:34;;;;;;;6.90;6.30;;;;;20.20;98956.00;;;;2081442;28;20557;-70
2021/04/29 04:42:34;;;;;;;6.53;5.73;;;;;20.10;98964.00;;;;2076663;28;20604;-69
2021/04/29 04:43:34;;;;;;;6.13;5.30;;;;;20.10;98951.00;;;;2072550;28;20203;-69
2021/04/29 04:44:35;;;;;;;5.47;5.03;;;;;20.10;98964.00;;;;2072538;28;20218;-69
2021/04/29 04:45:35;;;;;;;5.50;5.00;;;;;20.10;98959.00;;;;2080754;28;20218;-70
2021/04/29 04:46:35;;;;;;;7.07;5.57;;;;;20.10;98964.00;;;;2072650;28;20215;-70
2021/04/29 04:47:36;;;;;;;6.67;5.57;;;;;20.10;98967.00;;;;2072613;28;20203;-69
2021/04/29 04:48:36;;;;;;;6.17;5.67;;;;;20.10;98966.00;;;;2080527;28;20271;-68
2021/04/29 04:49:36;;;;;;;7.10;5.83;;;;;20.10;98967.00;;;;2079952;28;20294;-69
2021/04/29 04:50:37;;;;;;;6.53;5.93;;;;;20.10;98965.00;;;;2081070;28;20224;-70
2021/04/29 04:51:37;;;;;;;6.10;5.47;;;;;20.10;98972.00;;;;2080666;28;20213;-69
2021/04/29 04:52:38;;;;;;;5.23;4.83;;;;;20.10;98973.00;;;;2080660;28;20763;-69
2021/04/29 04:53:38;;;;;;;6.37;5.00;;;;;20.10;98981.00;;;;2081229;28;20213;-69
2021/04/29 04:54:38;;;;;;;5.93;5.43;;;;;20.10;98974.00;;;;2081188;28;20297;-67
2021/04/29 04:55:46;;;;;;;6.53;5.90;;;;;20.10;98981.00;;;;2081313;28;20715;-69
2021/04/29 04:56:47;;;;;;;6.50;5.90;;;;;20.10;98979.00;;;;2080926;28;20210;-69
2021/04/29 04:57:47;;;;;;;6.07;5.47;;;;;20.10;98974.00;;;;2080395;28;20211;-70
2021/04/29 04:58:47;;;;;;;6.87;6.10;;;;;20.10;98982.00;;;;2072318;28;20278;-70
2021/04/29 04:59:47;;;;;;;6.93;6.23;;;;;20.10;98973.00;;;;2080695;28;20709;-78
2021/04/29 05:00:49;;;;;;;5.37;4.87;;;;;20.10;98976.00;;;;2078951;28;20218;-69
2021/04/29 05:01:49;;;;;;;5.65;5.15;;;;;20.00;98986.00;;;;2080060;28;20214;-67
2021/04/29 05:02:49;;;;;;;5.70;5.20;;;;;20.00;98982.00;;;;2080559;28;20253;-68
2021/04/29 05:03:50;;;;;;;6.00;5.50;;;;;20.00;98986.00;;;;2079960;28;20292;-68
2021/04/29 05:04:50;;;;;;;6.83;5.67;;;;;20.10;98993.00;;;;2061055;28;20281;-68